createdAt,value
2019-04-30T04:01:05.490Z,991.77
2019-04-30T04:02:05.676Z,991.82
2019-04-30T04:03:05.831Z,991.86
2019-04-30T04:04:05.979Z,991.81
2019-04-30T04:05:06.160Z,991.78
2019-04-30T04:06:06.313Z,991.80
2019-04-30T04:07:06.462Z,991.83
2019-04-30T04:08:09.422Z,991.86
2019-04-30T04:09:06.826Z,991.85
2019-04-30T04:10:09.612Z,991.82
2019-04-30T04:11:10.008Z,991.88
2019-04-30T04:12:09.607Z,991.85
2019-04-30T04:13:07.435Z,991.91
2019-04-30T04:14:09.338Z,991.92
2019-04-30T04:15:10.197Z,991.92
2019-04-30T04:16:09.690Z,991.92
2019-04-30T04:17:09.887Z,991.91
2019-04-30T04:18:10.652Z,991.90
2019-04-30T04:19:09.630Z,991.91
2019-04-30T04:20:10.635Z,991.87
2019-04-30T04:21:16.010Z,991.91
2019-04-30T04:22:11.932Z,991.87
2019-04-30T04:23:09.641Z,991.92
2019-04-30T04:24:10.577Z,991.91
2019-04-30T04:25:10.097Z,991.89
2019-04-30T04:26:09.654Z,991.89
2019-04-30T04:27:09.797Z,991.89
2019-04-30T04:28:10.222Z,991.88
2019-04-30T04:29:12.518Z,991.89
2019-04-30T04:30:10.794Z,991.88
2019-04-30T04:31:10.337Z,991.91
2019-04-30T04:32:10.782Z,991.96
2019-04-30T04:33:10.640Z,991.94
2019-04-30T04:34:10.815Z,991.95
2019-04-30T04:35:12.787Z,991.93
2019-04-30T04:36:11.156Z,991.94
2019-04-30T04:37:11.274Z,991.97
2019-04-30T04:38:12.701Z,991.93
2019-04-30T04:39:11.696Z,991.92
2019-04-30T04:40:11.824Z,991.97
2019-04-30T04:41:11.972Z,991.92
2019-04-30T04:42:12.173Z,991.99
2019-04-30T04:43:12.302Z,991.98
2019-04-30T04:44:13.141Z,991.99
2019-04-30T04:45:12.664Z,992.02
2019-04-30T04:46:12.818Z,992.02
2019-04-30T04:47:16.007Z,992.01
2019-04-30T04:48:13.129Z,992.03
2019-04-30T04:49:13.297Z,992.01
2019-04-30T04:50:13.429Z,992.03
2019-04-30T04:51:27.885Z,992.01
2019-04-30T04:52:13.745Z,992.02
2019-04-30T04:53:13.938Z,992.03
2019-04-30T04:54:14.067Z,992.05
2019-04-30T04:55:14.225Z,992.04
2019-04-30T04:56:14.380Z,992.05
2019-04-30T04:57:18.261Z,992.07
2019-04-30T04:58:14.730Z,992.05
2019-04-30T04:59:14.858Z,992.08
2019-04-30T05:00:15.034Z,992.04
2019-04-30T05:01:15.221Z,992.08
2019-04-30T05:02:15.363Z,992.05
2019-04-30T05:03:15.571Z,992.05
2019-04-30T05:04:15.696Z,992.05
2019-04-30T05:05:15.851Z,992.08
2019-04-30T05:06:16.035Z,992.09
2019-04-30T05:07:16.183Z,992.06
2019-04-30T05:08:16.335Z,992.08
2019-04-30T05:09:16.505Z,992.08
2019-04-30T05:10:16.681Z,992.10
2019-04-30T05:11:16.829Z,992.10
2019-04-30T05:12:18.522Z,992.11
2019-04-30T05:13:19.077Z,992.08
2019-04-30T05:14:19.038Z,992.11
2019-04-30T05:15:19.323Z,992.12
2019-04-30T05:16:19.130Z,992.10
2019-04-30T05:17:19.488Z,992.13
2019-04-30T05:18:19.132Z,992.12
2019-04-30T05:19:18.692Z,992.16
2019-04-30T05:20:19.420Z,992.13
2019-04-30T05:21:18.911Z,992.18
2019-04-30T05:22:19.029Z,992.18
2019-04-30T05:23:21.554Z,992.21
2019-04-30T05:24:19.098Z,992.21
2019-04-30T05:25:19.089Z,992.24
2019-04-30T05:27:51.327Z,992.25
2019-04-30T05:28:52.884Z,992.26
2019-04-30T05:29:51.656Z,992.28
2019-04-30T05:30:51.828Z,992.28
2019-04-30T05:31:51.999Z,992.28
2019-04-30T05:32:52.181Z,992.26
2019-04-30T05:33:52.330Z,992.24
2019-04-30T05:34:52.510Z,992.25
2019-04-30T05:35:52.679Z,992.25
2019-04-30T05:36:52.817Z,992.29
2019-04-30T05:37:53.399Z,992.28
2019-04-30T05:38:53.282Z,992.28
2019-04-30T05:39:53.424Z,992.27
2019-04-30T05:40:53.666Z,992.32
2019-04-30T05:41:53.708Z,992.29
2019-04-30T05:42:53.866Z,992.29
2019-04-30T05:43:54.015Z,992.33
2019-04-30T05:44:54.196Z,992.30
2019-04-30T05:45:54.330Z,992.31
2019-04-30T05:46:54.502Z,992.31
2019-04-30T05:47:54.666Z,992.27
2019-04-30T05:48:54.843Z,992.35
2019-04-30T05:49:55.008Z,992.31
2019-04-30T05:50:56.278Z,992.30
2019-04-30T05:51:55.989Z,992.34
2019-04-30T05:52:55.545Z,992.29
2019-04-30T05:53:55.767Z,992.27
2019-04-30T05:54:55.883Z,992.30
2019-04-30T05:55:56.041Z,992.31
2019-04-30T05:56:56.399Z,992.33
2019-04-30T05:57:58.770Z,992.35
2019-04-30T05:58:56.636Z,992.31
2019-04-30T05:59:58.485Z,992.28
2019-04-30T06:00:56.936Z,992.27
2019-04-30T06:01:59.109Z,992.28
2019-04-30T06:02:57.219Z,992.28
2019-04-30T06:03:59.144Z,992.27
2019-04-30T06:04:58.770Z,992.28
2019-04-30T06:05:58.969Z,992.26
2019-04-30T06:06:58.705Z,992.27
2019-04-30T06:07:59.303Z,992.29
2019-04-30T06:09:06.175Z,992.28
2019-04-30T06:09:59.681Z,992.28
2019-04-30T06:10:59.707Z,992.29
2019-04-30T06:11:59.109Z,992.25
2019-04-30T06:12:59.464Z,992.27
2019-04-30T06:13:59.039Z,992.25
2019-04-30T06:14:59.196Z,992.29
2019-04-30T06:15:59.356Z,992.31
2019-04-30T06:16:59.764Z,992.32
2019-04-30T06:18:06.823Z,992.30
2019-04-30T06:18:59.866Z,992.35
2019-04-30T06:20:00.032Z,992.31
2019-04-30T06:21:00.230Z,992.34
2019-04-30T06:22:07.549Z,992.36
2019-04-30T06:23:00.560Z,992.36
2019-04-30T06:24:00.745Z,992.35
2019-04-30T06:25:00.874Z,992.36
2019-04-30T06:26:09.326Z,992.42
2019-04-30T06:27:01.187Z,992.39
2019-04-30T06:28:01.328Z,992.40
2019-04-30T06:29:01.496Z,992.43
2019-04-30T06:30:01.703Z,992.43
2019-04-30T06:31:01.820Z,992.40
2019-04-30T06:32:01.965Z,992.45
2019-04-30T06:33:02.148Z,992.44
2019-04-30T06:34:02.337Z,992.45
2019-04-30T06:35:02.476Z,992.48
2019-04-30T06:36:02.630Z,992.49
2019-04-30T06:37:02.797Z,992.49
2019-04-30T06:38:02.941Z,992.51
2019-04-30T06:39:03.118Z,992.52
2019-04-30T06:40:03.267Z,992.52
2019-04-30T06:41:03.426Z,992.48
2019-04-30T06:42:06.450Z,992.49
2019-04-30T06:43:03.773Z,992.51
2019-04-30T06:44:03.931Z,992.50
2019-04-30T06:45:04.083Z,992.53
2019-04-30T06:46:04.238Z,992.47
2019-04-30T06:47:04.411Z,992.53
2019-04-30T06:48:04.601Z,992.52
2019-04-30T06:49:04.732Z,992.51
2019-04-30T06:50:04.914Z,992.47
2019-04-30T06:51:05.068Z,992.51
2019-04-30T06:52:17.489Z,992.52
2019-04-30T06:53:05.396Z,992.57
2019-04-30T06:54:05.561Z,992.57
2019-04-30T06:55:05.803Z,992.59
2019-04-30T06:56:05.895Z,992.55
2019-04-30T06:57:06.056Z,992.57
2019-04-30T06:58:14.245Z,992.57
2019-04-30T06:59:06.391Z,992.61
2019-04-30T07:00:06.563Z,992.59
2019-04-30T07:01:06.743Z,992.60
2019-04-30T07:02:08.966Z,992.59
2019-04-30T07:03:09.377Z,992.62
2019-04-30T07:04:07.247Z,992.60
2019-04-30T07:05:09.983Z,992.62
2019-04-30T07:06:08.419Z,992.56
2019-04-30T07:07:09.102Z,992.61
2019-04-30T07:08:09.905Z,992.58
2019-04-30T07:09:08.859Z,992.51
2019-04-30T07:10:10.193Z,992.53
2019-04-30T07:11:11.128Z,992.53
2019-04-30T07:12:09.131Z,992.55
2019-04-30T07:13:08.831Z,992.60
2019-04-30T07:14:09.701Z,992.61
2019-04-30T07:15:09.125Z,992.58
2019-04-30T07:16:11.036Z,992.55
2019-04-30T07:17:09.577Z,992.58
2019-04-30T07:18:09.637Z,992.60
2019-04-30T07:19:09.804Z,992.54
2019-04-30T07:20:10.454Z,992.58
2019-04-30T07:21:10.147Z,992.57
2019-04-30T07:22:10.331Z,992.62
2019-04-30T07:23:10.487Z,992.61
2019-04-30T07:24:10.658Z,992.61
2019-04-30T07:25:10.830Z,992.61
2019-04-30T07:26:13.738Z,992.62
2019-04-30T07:27:11.164Z,992.61
2019-04-30T07:28:11.335Z,992.67
2019-04-30T07:29:11.505Z,992.67
2019-04-30T07:30:11.677Z,992.68
2019-04-30T07:31:14.494Z,992.65
2019-04-30T07:32:12.014Z,992.68
2019-04-30T07:33:12.183Z,992.62
2019-04-30T07:34:12.359Z,992.66
2019-04-30T07:35:12.531Z,992.66
2019-04-30T07:36:12.739Z,992.66
2019-04-30T07:37:20.471Z,992.64
2019-04-30T07:38:13.035Z,992.66
2019-04-30T07:39:13.205Z,992.64
2019-04-30T07:40:13.377Z,992.71
2019-04-30T07:41:13.548Z,992.70
2019-04-30T07:42:13.718Z,992.68
2019-04-30T07:43:13.891Z,992.63
2019-04-30T07:44:30.073Z,992.62
2019-04-30T07:45:14.235Z,992.66
2019-04-30T07:46:14.412Z,992.67
2019-04-30T07:47:14.581Z,992.66
2019-04-30T07:48:14.752Z,992.64
2019-04-30T07:49:14.924Z,992.70
2019-04-30T07:50:15.566Z,992.72
2019-04-30T07:51:16.057Z,992.70
2019-04-30T07:52:16.180Z,992.69
2019-04-30T07:53:15.610Z,992.63
2019-04-30T07:54:15.784Z,992.65
2019-04-30T07:55:15.953Z,992.69
2019-04-30T07:56:25.841Z,992.66
2019-04-30T07:57:16.294Z,992.68
2019-04-30T07:58:16.469Z,992.69
2019-04-30T07:59:16.635Z,992.73
2019-04-30T08:00:16.809Z,992.75
2019-04-30T08:01:19.409Z,992.76
2019-04-30T08:02:17.151Z,992.70
2019-04-30T08:03:20.083Z,992.72
2019-04-30T08:04:18.822Z,992.75
2019-04-30T08:05:19.799Z,992.76
2019-04-30T08:06:18.904Z,992.77
2019-04-30T08:07:19.894Z,992.75
2019-04-30T08:08:25.105Z,992.84
2019-04-30T08:09:19.602Z,992.78
2019-04-30T08:10:18.870Z,992.82
2019-04-30T08:11:25.774Z,992.81
2019-04-30T08:12:25.973Z,992.80
2019-04-30T08:13:21.885Z,992.83
2019-04-30T08:14:21.188Z,992.83
2019-04-30T08:15:19.906Z,992.80
2019-04-30T08:16:19.567Z,992.81
2019-04-30T08:17:19.736Z,992.82
2019-04-30T08:18:19.906Z,992.82
2019-04-30T08:19:20.083Z,992.82
2019-04-30T08:20:20.258Z,992.86
2019-04-30T08:21:20.428Z,992.82
2019-04-30T08:22:20.597Z,992.83
2019-04-30T08:23:34.073Z,992.84
2019-04-30T08:24:20.945Z,992.88
2019-04-30T08:25:22.046Z,992.86
2019-04-30T08:26:21.291Z,992.88
2019-04-30T08:27:21.468Z,992.93
2019-04-30T08:28:21.636Z,992.93
2019-04-30T08:29:21.813Z,992.94
2019-04-30T08:30:26.673Z,992.93
2019-04-30T08:31:22.159Z,992.97
2019-04-30T08:32:22.333Z,992.99
2019-04-30T08:33:22.504Z,992.94
2019-04-30T08:34:22.676Z,992.94
2019-04-30T08:35:22.855Z,992.90
2019-04-30T08:36:23.029Z,992.90
2019-04-30T08:37:23.201Z,992.93
2019-04-30T08:38:23.382Z,992.92
2019-04-30T08:39:23.556Z,992.94
2019-04-30T08:40:23.738Z,993.02
2019-04-30T08:41:23.899Z,992.95
2019-04-30T08:42:31.616Z,992.98
2019-04-30T08:43:24.247Z,992.97
2019-04-30T08:44:24.427Z,992.97
2019-04-30T08:45:24.596Z,993.02
2019-04-30T08:46:24.768Z,993.03
2019-04-30T08:47:24.948Z,992.98
2019-04-30T08:48:25.117Z,993.02
2019-04-30T08:49:25.453Z,992.97
2019-04-30T08:50:25.478Z,992.92
2019-04-30T08:51:25.642Z,992.95
2019-04-30T08:52:25.831Z,992.93
2019-04-30T08:53:29.913Z,993.00
2019-04-30T08:54:26.159Z,992.94
2019-04-30T08:55:26.332Z,992.97
2019-04-30T08:56:26.508Z,992.99
2019-04-30T08:57:26.684Z,993.01
2019-04-30T08:58:29.050Z,992.98
2019-04-30T08:59:27.023Z,992.98
2019-04-30T09:00:27.199Z,993.00
2019-04-30T09:01:29.229Z,993.03
2019-04-30T09:02:28.975Z,992.93
2019-04-30T09:03:29.554Z,992.95
2019-04-30T09:04:29.040Z,992.94
2019-04-30T09:05:30.063Z,992.92
2019-04-30T09:06:29.121Z,992.89
2019-04-30T09:07:29.718Z,992.87
2019-04-30T09:08:29.430Z,992.91
2019-04-30T09:09:29.538Z,992.91
2019-04-30T09:10:29.395Z,992.86
2019-04-30T09:11:35.576Z,992.89
2019-04-30T09:12:29.957Z,992.95
2019-04-30T09:13:29.457Z,992.95
2019-04-30T09:14:29.975Z,992.96
2019-04-30T09:15:29.814Z,993.03
2019-04-30T09:16:30.027Z,993.04
2019-04-30T09:17:30.157Z,993.11
2019-04-30T09:18:30.329Z,993.10
2019-04-30T09:19:30.503Z,993.14
2019-04-30T09:20:30.676Z,993.23
2019-04-30T09:21:30.850Z,993.22
2019-04-30T09:22:31.023Z,993.27
2019-04-30T09:23:43.323Z,993.25
2019-04-30T09:24:31.365Z,993.21
2019-04-30T09:25:31.544Z,993.23
2019-04-30T09:26:31.730Z,993.23
2019-04-30T09:27:31.890Z,993.18
2019-04-30T09:28:32.062Z,993.18
2019-04-30T09:29:32.236Z,993.19
2019-04-30T09:30:32.414Z,993.19
2019-04-30T09:31:32.591Z,993.23
2019-04-30T09:32:32.764Z,993.25
2019-04-30T09:33:32.941Z,993.26
2019-04-30T09:34:33.118Z,993.28
2019-04-30T09:35:33.293Z,993.34
2019-04-30T09:36:33.467Z,993.35
2019-04-30T09:37:33.641Z,993.30
2019-04-30T09:38:33.818Z,993.40
2019-04-30T09:39:33.992Z,993.39
2019-04-30T09:40:34.167Z,993.41
2019-04-30T09:41:34.335Z,993.49
2019-04-30T09:42:34.510Z,993.51
2019-04-30T09:43:34.685Z,993.56
2019-04-30T09:44:34.856Z,993.49
2019-04-30T09:45:35.026Z,993.43
2019-04-30T09:46:35.194Z,993.40
2019-04-30T09:47:35.366Z,993.34
2019-04-30T09:48:35.535Z,993.37
2019-04-30T09:49:35.710Z,993.34
2019-04-30T09:50:36.104Z,993.36
2019-04-30T09:51:36.057Z,993.34
2019-04-30T09:52:37.376Z,993.31
2019-04-30T09:53:36.426Z,993.29
2019-04-30T09:54:36.601Z,993.33
2019-04-30T09:55:36.763Z,993.30
2019-04-30T09:56:36.940Z,993.27
2019-04-30T09:57:38.877Z,993.26
2019-04-30T09:58:39.232Z,993.28
2019-04-30T09:59:38.795Z,993.29
2019-04-30T10:00:39.300Z,993.32
2019-04-30T10:01:37.817Z,993.32
2019-04-30T10:02:38.861Z,993.31
2019-04-30T10:03:38.976Z,993.35
2019-04-30T10:04:39.727Z,993.31
2019-04-30T10:05:39.127Z,993.31
2019-04-30T10:06:40.227Z,993.28
2019-04-30T10:07:39.425Z,993.33
2019-04-30T10:08:48.210Z,993.30
2019-04-30T10:09:39.227Z,993.32
2019-04-30T10:10:39.401Z,993.31
2019-04-30T10:11:39.579Z,993.27
2019-04-30T10:12:39.755Z,993.28
2019-04-30T10:13:39.922Z,993.31
2019-04-30T10:14:41.029Z,993.28
2019-04-30T10:15:40.265Z,993.27
2019-04-30T10:16:40.438Z,993.27
2019-04-30T10:17:40.625Z,993.27
2019-04-30T10:18:40.797Z,993.27
2019-04-30T10:19:40.973Z,993.26
2019-04-30T10:20:41.154Z,993.21
2019-04-30T10:21:41.326Z,993.19
2019-04-30T10:22:41.513Z,993.20
2019-04-30T10:23:41.681Z,993.19
2019-04-30T10:24:41.864Z,993.18
2019-04-30T10:25:42.045Z,993.24
2019-04-30T10:26:42.223Z,993.19
2019-04-30T10:27:42.401Z,993.17
2019-04-30T10:28:42.601Z,993.18
2019-04-30T10:29:42.754Z,993.22
2019-04-30T10:30:42.931Z,993.20
2019-04-30T10:31:43.112Z,993.26
2019-04-30T10:32:43.297Z,993.35
2019-04-30T10:33:43.468Z,994.03
2019-04-30T10:34:43.649Z,994.80
2019-04-30T10:35:43.826Z,994.27
2019-04-30T10:36:44.006Z,993.88
2019-04-30T10:37:44.186Z,993.88
2019-04-30T10:38:44.363Z,993.80
2019-04-30T10:39:44.544Z,993.69
2019-04-30T10:40:44.726Z,993.76
2019-04-30T10:41:44.902Z,993.89
2019-04-30T10:42:45.083Z,993.92
2019-04-30T10:43:45.258Z,993.92
2019-04-30T10:44:45.454Z,993.87
2019-04-30T10:45:45.615Z,993.80
2019-04-30T10:46:45.794Z,993.68
2019-04-30T10:47:45.972Z,993.67
2019-04-30T10:48:46.151Z,993.64
2019-04-30T10:49:46.329Z,993.62
2019-04-30T10:50:46.508Z,993.66
2019-04-30T10:51:46.687Z,993.54
2019-04-30T10:52:46.870Z,993.52
2019-04-30T10:53:48.625Z,993.53
2019-04-30T10:54:47.227Z,993.52
2019-04-30T10:55:48.604Z,993.48
2019-04-30T10:56:51.140Z,993.52
2019-04-30T10:57:49.553Z,993.47
2019-04-30T10:58:47.939Z,993.40
2019-04-30T10:59:48.745Z,993.43
2019-04-30T11:00:49.875Z,993.42
2019-04-30T11:01:49.273Z,993.35
2019-04-30T11:02:49.646Z,993.39
2019-04-30T11:03:48.835Z,993.50
2019-04-30T11:04:49.007Z,993.48
2019-04-30T11:05:49.189Z,993.55
2019-04-30T11:06:49.371Z,993.53
2019-04-30T11:07:49.595Z,993.52
2019-04-30T11:08:49.731Z,993.57
2019-04-30T11:09:49.911Z,993.57
2019-04-30T11:10:50.092Z,993.59
2019-04-30T11:11:50.271Z,993.61
2019-04-30T11:12:50.447Z,993.54
2019-04-30T11:13:50.627Z,993.56
2019-04-30T11:14:50.801Z,993.62
2019-04-30T11:15:50.985Z,993.61
2019-04-30T11:16:51.662Z,993.58
2019-04-30T11:17:51.482Z,993.50
2019-04-30T11:18:51.775Z,993.51
2019-04-30T11:19:51.926Z,993.57
2019-04-30T11:20:52.026Z,993.61
2019-04-30T11:21:52.188Z,993.59
2019-04-30T11:22:54.512Z,993.62
2019-04-30T11:23:52.535Z,993.56
2019-04-30T11:24:58.750Z,993.53
2019-04-30T11:25:53.258Z,993.54
2019-04-30T11:26:53.444Z,993.56
2019-04-30T11:27:53.749Z,993.61
2019-04-30T11:28:53.464Z,993.59
2019-04-30T11:30:00.627Z,993.61
2019-04-30T11:30:53.878Z,993.53
2019-04-30T11:31:54.092Z,993.50
2019-04-30T11:32:54.147Z,993.50
2019-04-30T11:33:54.200Z,993.47
2019-04-30T11:34:54.372Z,993.45
2019-04-30T11:36:02.333Z,993.38
2019-04-30T11:36:54.709Z,993.37
2019-04-30T11:37:54.883Z,993.37
2019-04-30T11:38:55.043Z,993.32
2019-04-30T11:39:55.247Z,993.32
2019-04-30T11:40:55.421Z,993.27
2019-04-30T11:41:55.616Z,993.35
2019-04-30T11:42:55.758Z,993.33
2019-04-30T11:43:55.923Z,993.33
2019-04-30T11:44:56.100Z,993.36
2019-04-30T11:45:56.270Z,993.35
2019-04-30T11:46:56.425Z,993.27
2019-04-30T11:47:56.654Z,993.25
2019-04-30T11:48:58.568Z,993.31
2019-04-30T11:49:56.966Z,993.35
2019-04-30T11:50:57.152Z,993.22
2019-04-30T11:51:57.315Z,993.28
2019-04-30T11:53:13.934Z,993.19
2019-04-30T11:53:59.391Z,993.22
2019-04-30T11:54:59.669Z,993.24
2019-04-30T11:55:59.177Z,993.22
2019-04-30T11:56:58.859Z,993.22
2019-04-30T11:57:59.239Z,993.24
2019-04-30T11:58:58.956Z,993.26
2019-04-30T11:59:58.724Z,993.21
2019-04-30T12:00:59.291Z,993.19
2019-04-30T12:01:59.065Z,993.14
2019-04-30T12:02:59.396Z,993.25
2019-04-30T12:03:59.850Z,993.26
2019-04-30T12:04:59.585Z,993.22
2019-04-30T12:05:59.767Z,993.16
2019-04-30T12:06:59.958Z,993.11
2019-04-30T12:08:00.142Z,993.15
2019-04-30T12:09:00.268Z,993.07
2019-04-30T12:10:00.436Z,993.06
2019-04-30T12:11:00.606Z,993.05
2019-04-30T12:12:00.783Z,993.06
2019-04-30T12:13:00.952Z,993.05
2019-04-30T12:14:01.142Z,993.08
2019-04-30T12:15:02.831Z,993.09
2019-04-30T12:16:01.488Z,993.04
2019-04-30T12:17:01.672Z,993.02
2019-04-30T12:18:01.840Z,992.98
2019-04-30T12:19:01.991Z,992.97
2019-04-30T12:20:02.159Z,993.03
2019-04-30T12:21:02.321Z,993.04
2019-04-30T12:22:02.495Z,992.97
2019-04-30T12:23:02.676Z,992.75
2019-04-30T12:24:02.917Z,992.70
2019-04-30T12:25:05.484Z,992.55
2019-04-30T12:26:03.285Z,992.46
2019-04-30T12:27:03.374Z,992.37
2019-04-30T12:28:03.534Z,992.43
2019-04-30T12:29:03.698Z,992.41
2019-04-30T12:30:03.869Z,992.41
2019-04-30T12:31:05.848Z,992.33
2019-04-30T12:32:04.225Z,992.32
2019-04-30T12:33:04.412Z,992.34
2019-04-30T12:34:04.625Z,992.35
2019-04-30T12:35:04.741Z,992.38
2019-04-30T12:36:06.472Z,992.34
2019-04-30T12:37:05.137Z,992.25
2019-04-30T12:38:05.331Z,992.27
2019-04-30T12:39:05.461Z,992.28
2019-04-30T12:40:05.626Z,992.20
2019-04-30T12:41:05.797Z,992.26
2019-04-30T12:42:05.968Z,992.28
2019-04-30T12:43:06.159Z,992.35
2019-04-30T12:44:06.327Z,992.34
2019-04-30T12:45:06.513Z,992.31
2019-04-30T12:46:06.661Z,992.31
2019-04-30T12:47:06.828Z,992.30
2019-04-30T12:48:07.042Z,992.24
2019-04-30T12:49:07.181Z,992.28
2019-04-30T12:50:09.434Z,992.27
2019-04-30T12:51:07.520Z,992.21
2019-04-30T12:52:08.760Z,992.20
2019-04-30T12:53:09.395Z,992.17
2019-04-30T12:54:08.035Z,992.15
2019-04-30T12:55:15.248Z,992.13
2019-04-30T12:56:08.992Z,992.16
2019-04-30T12:57:10.812Z,992.10
2019-04-30T12:58:09.817Z,992.16
2019-04-30T12:59:08.899Z,992.05
2019-04-30T13:00:09.514Z,992.04
2019-04-30T13:01:09.260Z,992.05
2019-04-30T13:02:09.443Z,991.96
2019-04-30T13:03:09.636Z,991.89
2019-04-30T13:04:09.923Z,991.88
2019-04-30T13:05:09.949Z,991.83
2019-04-30T13:06:11.360Z,991.85
2019-04-30T13:07:11.189Z,991.79
2019-04-30T13:08:10.762Z,991.61
2019-04-30T13:09:11.634Z,991.87
2019-04-30T13:10:11.317Z,991.85
2019-04-30T13:11:13.079Z,991.80
2019-04-30T13:12:11.780Z,991.67
2019-04-30T13:13:11.529Z,991.82
2019-04-30T13:14:12.061Z,991.78
2019-04-30T13:15:11.716Z,991.75
2019-04-30T13:16:11.881Z,991.78
2019-04-30T13:17:12.057Z,991.81
2019-04-30T13:18:12.252Z,991.72
2019-04-30T13:19:12.401Z,991.73
2019-04-30T13:20:21.203Z,991.69
2019-04-30T13:21:12.752Z,991.71
2019-04-30T13:22:12.924Z,991.67
2019-04-30T13:23:13.112Z,991.69
2019-04-30T13:24:13.308Z,991.66
2019-04-30T13:25:13.487Z,991.64
2019-04-30T13:26:13.620Z,991.65
2019-04-30T13:27:13.792Z,991.70
2019-04-30T13:28:13.988Z,991.67
2019-04-30T13:29:14.124Z,991.65
2019-04-30T13:30:14.316Z,991.50
2019-04-30T13:31:14.493Z,991.65
2019-04-30T13:32:14.654Z,991.42
2019-04-30T13:33:14.875Z,991.35
2019-04-30T13:34:15.038Z,991.64
2019-04-30T13:35:15.261Z,991.59
2019-04-30T13:36:15.368Z,991.56
2019-04-30T13:37:15.568Z,991.57
2019-04-30T13:38:15.760Z,991.54
2019-04-30T13:39:15.915Z,991.51
2019-04-30T13:40:16.102Z,991.49
2019-04-30T13:41:16.270Z,991.46
2019-04-30T13:42:18.633Z,991.48
2019-04-30T13:43:16.572Z,991.48
2019-04-30T13:44:16.730Z,991.47
2019-04-30T13:45:18.676Z,991.58
2019-04-30T13:46:18.560Z,991.48
2019-04-30T13:47:19.078Z,991.48
2019-04-30T13:48:17.416Z,991.48
2019-04-30T13:49:17.583Z,991.48
2019-04-30T13:50:19.656Z,991.47
2019-04-30T13:51:17.947Z,991.41
2019-04-30T13:52:18.096Z,991.39
2019-04-30T13:53:18.644Z,991.45
2019-04-30T13:54:18.440Z,991.40
2019-04-30T13:55:19.229Z,991.42
2019-04-30T13:56:20.288Z,991.44
2019-04-30T13:57:18.984Z,991.35
2019-04-30T13:58:19.177Z,991.38
2019-04-30T13:59:19.349Z,991.34
2019-04-30T14:00:19.549Z,991.13
2019-04-30T14:01:21.459Z,991.08
2019-04-30T14:02:19.872Z,991.15
2019-04-30T14:03:20.027Z,991.20
2019-04-30T14:04:20.258Z,991.15
2019-04-30T14:05:20.404Z,991.31
2019-04-30T14:06:20.519Z,991.13
2019-04-30T14:07:20.798Z,991.07
2019-04-30T14:08:20.935Z,991.08
2019-04-30T14:09:21.087Z,991.33
2019-04-30T14:10:21.221Z,991.26
2019-04-30T14:11:21.372Z,991.07
2019-04-30T14:12:21.586Z,991.16
2019-04-30T14:13:21.787Z,991.31
2019-04-30T14:14:21.934Z,991.27
2019-04-30T14:15:22.071Z,991.26
2019-04-30T14:16:22.266Z,991.31
2019-04-30T14:17:22.425Z,991.27
2019-04-30T14:18:30.603Z,991.22
2019-04-30T14:19:22.763Z,991.09
2019-04-30T14:20:22.943Z,991.02
2019-04-30T14:21:34.500Z,991.28
2019-04-30T14:22:23.287Z,991.27
2019-04-30T14:23:23.458Z,991.23
2019-04-30T14:24:23.617Z,991.27
2019-04-30T14:25:23.791Z,991.23
2019-04-30T14:26:23.975Z,991.30
2019-04-30T14:27:24.110Z,991.26
2019-04-30T14:28:24.286Z,991.23
2019-04-30T14:29:24.446Z,991.19
2019-04-30T14:30:24.605Z,991.14
2019-04-30T14:31:26.419Z,991.25
2019-04-30T14:32:24.998Z,991.19
2019-04-30T14:33:26.795Z,991.08
2019-04-30T14:34:25.325Z,991.07
2019-04-30T14:35:25.489Z,991.12
2019-04-30T14:36:25.639Z,991.19
2019-04-30T14:37:25.841Z,991.22
2019-04-30T14:38:25.985Z,991.22
2019-04-30T14:39:26.170Z,991.22
2019-04-30T14:40:26.918Z,991.22
2019-04-30T14:41:26.841Z,991.23
2019-04-30T14:42:27.327Z,991.20
2019-04-30T14:43:29.351Z,991.17
2019-04-30T14:44:31.169Z,991.15
2019-04-30T14:45:27.487Z,991.12
2019-04-30T14:46:29.575Z,990.92
2019-04-30T14:47:30.433Z,991.10
2019-04-30T14:48:30.230Z,991.13
2019-04-30T14:49:28.718Z,991.15
2019-04-30T14:50:28.578Z,991.05
2019-04-30T14:51:28.281Z,991.10
2019-04-30T14:52:29.320Z,991.10
2019-04-30T14:53:30.411Z,991.06
2019-04-30T14:54:28.769Z,991.04
2019-04-30T14:55:29.444Z,991.01
2019-04-30T14:56:29.528Z,991.01
2019-04-30T14:57:29.288Z,991.04
2019-04-30T14:58:29.460Z,991.00
2019-04-30T14:59:29.656Z,991.09
2019-04-30T15:00:31.926Z,991.11
2019-04-30T15:01:29.981Z,991.08
2019-04-30T15:02:30.155Z,991.14
2019-04-30T15:03:30.396Z,991.09
2019-04-30T15:04:30.541Z,991.06
2019-04-30T15:05:38.954Z,990.96
2019-04-30T15:06:30.852Z,990.92
2019-04-30T15:07:31.044Z,990.92
2019-04-30T15:08:31.231Z,990.96
2019-04-30T15:09:31.395Z,991.05
2019-04-30T15:10:31.623Z,990.90
2019-04-30T15:11:31.767Z,990.84
2019-04-30T15:12:31.930Z,990.84
2019-04-30T15:13:32.144Z,990.86
2019-04-30T15:14:32.285Z,990.80
2019-04-30T15:15:32.487Z,990.78
2019-04-30T15:16:32.627Z,990.76
2019-04-30T15:17:32.795Z,990.81
2019-04-30T15:18:32.986Z,990.90
2019-04-30T15:19:33.171Z,990.80
2019-04-30T15:20:33.345Z,990.85
2019-04-30T15:21:33.484Z,990.74
2019-04-30T15:22:33.685Z,990.83
2019-04-30T15:23:33.878Z,990.95
2019-04-30T15:24:34.022Z,990.87
2019-04-30T15:25:34.598Z,990.90
2019-04-30T15:26:34.365Z,990.88
2019-04-30T15:27:34.512Z,990.94
2019-04-30T15:28:34.724Z,990.92
2019-04-30T15:29:34.878Z,990.66
2019-04-30T15:30:34.999Z,990.77
2019-04-30T15:31:35.193Z,990.94
2019-04-30T15:32:35.370Z,990.79
2019-04-30T15:33:35.581Z,990.81
2019-04-30T15:34:35.681Z,990.75
2019-04-30T15:35:35.877Z,990.70
2019-04-30T15:36:36.031Z,990.91
2019-04-30T15:37:36.202Z,990.75
2019-04-30T15:38:36.419Z,990.91
2019-04-30T15:39:36.561Z,990.91
2019-04-30T15:40:38.685Z,990.82
2019-04-30T15:41:36.867Z,990.70
2019-04-30T15:42:37.059Z,990.91
2019-04-30T15:43:37.219Z,990.92
2019-04-30T15:44:42.588Z,990.75
2019-04-30T15:45:39.164Z,990.72
2019-04-30T15:46:37.729Z,990.93
2019-04-30T15:47:38.713Z,990.86
2019-04-30T15:48:38.073Z,990.81
2019-04-30T15:49:38.228Z,990.76
2019-04-30T15:50:39.252Z,990.73
2019-04-30T15:51:38.572Z,990.73
2019-04-30T15:52:38.819Z,990.75
2019-04-30T15:53:38.956Z,990.87
2019-04-30T15:54:39.264Z,990.83
2019-04-30T15:55:39.280Z,990.79
2019-04-30T15:56:40.865Z,990.77
2019-04-30T15:57:39.606Z,990.77
2019-04-30T15:58:39.823Z,990.69
2019-04-30T15:59:39.955Z,990.76
2019-04-30T16:00:40.154Z,990.76
2019-04-30T16:01:40.311Z,990.65
2019-04-30T16:02:40.498Z,990.71
2019-04-30T16:03:40.623Z,990.68
2019-04-30T16:04:40.821Z,990.63
2019-04-30T16:05:40.950Z,990.68
2019-04-30T16:06:41.137Z,990.66
2019-04-30T16:07:41.357Z,990.66
2019-04-30T16:08:41.486Z,990.68
2019-04-30T16:09:41.695Z,990.67
2019-04-30T16:10:41.827Z,990.66
2019-04-30T16:11:41.990Z,990.66
2019-04-30T16:12:42.170Z,990.63
2019-04-30T16:13:42.341Z,990.63
2019-04-30T16:14:42.523Z,990.60
2019-04-30T16:15:42.686Z,990.60
2019-04-30T16:16:42.846Z,990.60
2019-04-30T16:17:43.019Z,990.58
2019-04-30T16:18:43.178Z,990.55
2019-04-30T16:19:43.347Z,990.60
2019-04-30T16:20:43.526Z,990.58
2019-04-30T16:21:43.699Z,990.60
2019-04-30T16:22:43.876Z,990.51
2019-04-30T16:23:44.060Z,990.59
2019-04-30T16:24:44.223Z,990.56
2019-04-30T16:25:44.384Z,990.58
2019-04-30T16:26:49.925Z,990.55
2019-04-30T16:27:44.732Z,990.56
2019-04-30T16:28:44.903Z,990.52
2019-04-30T16:29:45.086Z,990.53
2019-04-30T16:30:45.265Z,990.55
2019-04-30T16:31:45.428Z,990.54
2019-04-30T16:32:45.607Z,990.56